Time;durP1;ratioP1;P1;durP2;ratioP2;P2;SDS_P1;SDS_P2;PMS_P1;PMS_P2;Temp;Humidity;BMP_temperature;BMP_pressure;BME280_temperature;BME280_humidity;BME280_pressure;Samples;Min_cycle;Max_cycle;Signal;HPM_P1;HPM_P2
2023/02/07 00:01:15;;;;;;;10.95;7.70;;;4.60;99.90;;;;;;4978161;28;20077;-88
2023/02/07 00:03:41;;;;;;;10.95;8.40;;;4.30;99.90;;;;;;4995505;28;20495;-88
2023/02/07 00:06:32;;;;;;;11.77;8.20;;;4.40;99.90;;;;;;4995860;28;20114;-88
2023/02/07 00:08:59;;;;;;;11.40;8.20;;;3.90;99.90;;;;;;4977964;28;20027;-88
2023/02/07 00:11:24;;;;;;;10.57;8.18;;;4.40;99.90;;;;;;4995978;28;20364;-89
2023/02/07 00:13:53;;;;;;;12.55;8.45;;;4.20;99.90;;;;;;4995467;28;20041;-88
2023/02/07 00:16:20;;;;;;;11.48;8.70;;;4.30;99.90;;;;;;4993656;28;20038;-88
2023/02/07 00:18:47;;;;;;;12.18;8.95;;;4.20;99.90;;;;;;4982664;28;20044;-89
2023/02/07 00:21:21;;;;;;;12.75;9.50;;;4.00;99.90;;;;;;4975906;28;20369;-88
2023/02/07 00:23:47;;;;;;;11.70;9.05;;;4.00;99.90;;;;;;4956771;29;20023;-89
2023/02/07 00:26:15;;;;;;;12.57;9.60;;;4.30;99.90;;;;;;4956818;29;20615;-88
2023/02/07 00:28:40;;;;;;;11.65;8.73;;;3.90;99.90;;;;;;4956155;29;20514;-88
2023/02/07 00:31:12;;;;;;;14.23;9.60;;;3.90;99.90;;;;;;4956195;29;20042;-89
2023/02/07 00:33:40;;;;;;;13.13;10.35;;;3.90;99.90;;;;;;4938978;29;20515;-88
2023/02/07 00:36:08;;;;;;;13.38;9.63;;;4.30;99.90;;;;;;4956727;29;20030;-88
2023/02/07 00:38:34;;;;;;;11.13;9.00;;;4.00;99.90;;;;;;4956360;29;20039;-89
2023/02/07 00:41:00;;;;;;;12.65;9.45;;;4.50;99.90;;;;;;4956975;29;20094;-88
2023/02/07 00:43:28;;;;;;;12.07;9.43;;;3.70;99.90;;;;;;4939053;29;20078;-88
2023/02/07 00:45:55;;;;;;;13.32;9.90;;;4.00;99.90;;;;;;4972279;28;20074;-90
2023/02/07 00:48:20;;;;;;;12.68;9.25;;;4.30;99.90;;;;;;4974741;28;20034;-88
2023/02/07 00:50:46;;;;;;;13.35;9.48;;;4.10;99.90;;;;;;4957880;28;20031;-88
2023/02/07 00:53:12;;;;;;;12.25;9.55;;;3.40;99.90;;;;;;4958063;28;20041;-88
2023/02/07 00:55:37;;;;;;;13.00;9.68;;;3.60;99.90;;;;;;4975226;28;20035;-88
2023/02/07 00:58:03;;;;;;;11.45;9.05;;;3.60;99.90;;;;;;4975362;28;20022;-88
2023/02/07 01:00:32;;;;;;;14.05;9.60;;;4.20;99.90;;;;;;4974958;28;20109;-89
2023/02/07 01:02:57;;;;;;;11.63;9.25;;;3.80;99.90;;;;;;4974911;28;20027;-88
2023/02/07 01:05:23;;;;;;;12.77;9.18;;;3.90;99.90;;;;;;4975156;28;20041;-88
2023/02/07 01:07:48;;;;;;;11.13;9.10;;;4.00;99.90;;;;;;4975081;28;20030;-88
2023/02/07 01:10:14;;;;;;;12.40;9.93;;;4.30;99.90;;;;;;4975298;28;20085;-89
2023/02/07 01:12:40;;;;;;;13.38;10.05;;;4.30;99.90;;;;;;4975100;28;20028;-87
2023/02/07 01:15:06;;;;;;;12.95;9.43;;;4.10;99.90;;;;;;4957833;28;20042;-88
2023/02/07 01:17:32;;;;;;;11.57;8.93;;;3.60;99.90;;;;;;4975050;28;20027;-87
2023/02/07 01:19:58;;;;;;;12.27;9.48;;;3.70;99.90;;;;;;4975535;28;20173;-88
2023/02/07 01:22:25;;;;;;;13.32;9.65;;;3.50;99.90;;;;;;4972976;28;20034;-88
2023/02/07 01:24:54;;;;;;;12.30;9.48;;;4.00;99.90;;;;;;4973375;28;20031;-88
2023/02/07 01:27:23;;;;;;;13.88;10.30;;;3.80;99.90;;;;;;4974780;28;20483;-87
2023/02/07 01:29:49;;;;;;;14.38;10.18;;;3.50;99.90;;;;;;4992196;28;20034;-89
2023/02/07 01:32:15;;;;;;;14.38;9.75;;;3.70;99.90;;;;;;4959009;28;20033;-88
2023/02/07 01:34:41;;;;;;;11.68;8.95;;;3.50;99.90;;;;;;4991945;28;20487;-87
2023/02/07 01:37:06;;;;;;;13.75;9.77;;;3.80;99.90;;;;;;4989387;28;20494;-88
2023/02/07 01:39:32;;;;;;;12.93;9.00;;;3.90;99.90;;;;;;4976465;28;20117;-87
2023/02/07 01:41:58;;;;;;;12.93;9.38;;;3.20;99.90;;;;;;4984272;28;20041;-87
2023/02/07 01:44:23;;;;;;;14.07;9.82;;;3.20;99.90;;;;;;4956560;28;20148;-88
2023/02/07 01:46:51;;;;;;;14.00;10.07;;;3.60;99.90;;;;;;4977810;28;20483;-88
2023/02/07 01:49:21;;;;;;;14.32;9.52;;;2.90;99.90;;;;;;4974165;28;20046;-88
2023/02/07 01:51:52;;;;;;;12.82;10.18;;;3.10;99.90;;;;;;4974166;28;20038;-87
2023/02/07 01:54:20;;;;;;;12.43;9.55;;;3.60;99.90;;;;;;4963710;28;20039;-89
2023/02/07 01:56:53;;;;;;;14.27;10.35;;;3.00;99.90;;;;;;4993825;28;20022;-88
2023/02/07 01:59:20;;;;;;;13.80;9.73;;;3.70;99.90;;;;;;4992804;28;20030;-88
2023/02/07 02:01:46;;;;;;;15.35;10.15;;;3.20;99.90;;;;;;4977291;28;20161;-88
2023/02/07 02:04:12;;;;;;;13.80;10.27;;;2.90;99.90;;;;;;4993053;28;20034;-88
2023/02/07 02:06:39;;;;;;;14.13;10.18;;;3.20;99.90;;;;;;4965146;28;20037;-88
2023/02/07 02:09:11;;;;;;;15.23;10.52;;;2.90;99.90;;;;;;4988267;28;20033;-88
2023/02/07 02:11:48;;;;;;;14.23;9.75;;;3.40;99.90;;;;;;4973827;28;20110;-88
2023/02/07 02:14:19;;;;;;;12.93;10.25;;;2.70;99.90;;;;;;4973880;28;20050;-88
2023/02/07 02:17:13;;;;;;;14.15;10.07;;;2.80;99.90;;;;;;4973773;28;20102;-88
2023/02/07 02:19:44;;;;;;;14.85;10.27;;;2.70;99.90;;;;;;4973316;28;20035;-88
2023/02/07 02:22:40;;;;;;;12.18;9.60;;;2.90;99.90;;;;;;4976917;28;20102;-88
2023/02/07 02:25:36;;;;;;;13.45;10.05;;;3.00;99.90;;;;;;4992357;28;20034;-88
2023/02/07 02:28:20;;;;;;;13.30;10.05;;;2.80;99.90;;;;;;4947157;28;20026;-88
2023/02/07 02:31:18;;;;;;;13.48;10.65;;;2.90;99.90;;;;;;4982559;28;20038;-89
2023/02/07 02:33:58;;;;;;;13.38;9.80;;;3.20;99.90;;;;;;4973566;28;20049;-87
2023/02/07 02:36:43;;;;;;;12.50;9.95;;;3.10;99.90;;;;;;4975167;28;20509;-88
2023/02/07 02:39:15;;;;;;;13.85;9.63;;;3.10;99.90;;;;;;4993212;28;20026;-88
2023/02/07 02:41:59;;;;;;;12.63;10.02;;;3.40;99.90;;;;;;4984232;28;20026;-88
2023/02/07 02:44:39;;;;;;;15.20;10.52;;;3.20;99.90;;;;;;4955490;28;20082;-88
2023/02/07 02:47:06;;;;;;;13.77;9.50;;;3.50;99.90;;;;;;4957199;28;20446;-87
2023/02/07 02:49:33;;;;;;;15.20;10.88;;;4.00;99.90;;;;;;4974089;28;20530;-88
2023/02/07 02:51:59;;;;;;;14.52;9.68;;;3.50;99.90;;;;;;4975515;28;20027;-88
2023/02/07 02:54:33;;;;;;;12.48;9.75;;;3.20;99.90;;;;;;4974670;28;20034;-88
2023/02/07 02:57:27;;;;;;;13.70;10.38;;;3.10;99.90;;;;;;4986829;28;20480;-88
2023/02/07 03:00:25;;;;;;;13.73;9.98;;;3.50;99.90;;;;;;4973613;28;20035;-88
2023/02/07 03:03:02;;;;;;;12.05;9.43;;;3.20;99.90;;;;;;4915945;29;20040;-89
2023/02/07 03:05:59;;;;;;;14.25;10.20;;;3.30;99.90;;;;;;4932359;29;20050;-87
2023/02/07 03:08:53;;;;;;;14.48;9.32;;;3.20;99.90;;;;;;4931723;29;20130;-88
2023/02/07 03:11:22;;;;;;;12.15;9.35;;;3.30;99.90;;;;;;4912953;29;20040;-88
2023/02/07 03:14:13;;;;;;;12.27;9.48;;;3.20;99.90;;;;;;4913437;29;20465;-88
2023/02/07 03:16:47;;;;;;;12.70;9.63;;;3.20;99.90;;;;;;4913562;28;20070;-86
2023/02/07 03:19:33;;;;;;;13.70;10.05;;;3.10;99.90;;;;;;4913455;29;20043;-88
2023/02/07 03:22:09;;;;;;;12.38;9.38;;;3.10;99.90;;;;;;4913218;29;20039;-87
2023/02/07 03:24:41;;;;;;;12.93;10.02;;;3.30;99.90;;;;;;4913285;29;20032;-88
2023/02/07 03:27:10;;;;;;;12.38;9.10;;;3.10;99.90;;;;;;4913203;29;20040;-88
2023/02/07 03:29:38;;;;;;;13.80;9.73;;;3.00;99.90;;;;;;4912986;29;20118;-87
2023/02/07 03:32:07;;;;;;;13.52;9.95;;;3.80;99.90;;;;;;4915060;29;20040;-88
2023/02/07 03:34:42;;;;;;;14.32;10.02;;;3.50;99.90;;;;;;4917068;29;20060;-88
2023/02/07 03:37:28;;;;;;;12.70;9.10;;;3.40;99.90;;;;;;4906515;29;20038;-88
2023/02/07 03:39:54;;;;;;;11.73;9.65;;;3.40;99.90;;;;;;4935879;29;20526;-88
2023/02/07 03:42:50;;;;;;;14.32;9.38;;;3.30;99.90;;;;;;4954433;29;20054;-88
2023/02/07 03:45:19;;;;;;;14.15;10.00;;;3.40;99.90;;;;;;4942614;28;20071;-87
2023/02/07 03:47:44;;;;;;;11.05;9.27;;;3.30;99.90;;;;;;4962115;28;20046;-88
2023/02/07 03:50:11;;;;;;;11.52;9.57;;;3.50;99.90;;;;;;4967128;28;20026;-88
2023/02/07 03:52:37;;;;;;;14.07;9.93;;;3.20;99.90;;;;;;4977971;28;20034;-88
2023/02/07 03:55:03;;;;;;;13.32;10.15;;;3.40;99.90;;;;;;4991501;28;20042;-88
2023/02/07 03:57:28;;;;;;;12.70;9.70;;;3.40;99.90;;;;;;4970552;28;20041;-88
2023/02/07 03:59:54;;;;;;;14.18;10.10;;;3.50;99.90;;;;;;4958924;28;20026;-87
2023/02/07 04:02:20;;;;;;;13.48;10.45;;;3.70;99.90;;;;;;4976092;28;20115;-88
2023/02/07 04:04:45;;;;;;;13.77;10.07;;;4.10;99.90;;;;;;4966408;28;20026;-88
2023/02/07 04:07:11;;;;;;;12.20;9.38;;;4.10;99.90;;;;;;4995193;28;20034;-88
2023/02/07 04:09:37;;;;;;;12.45;9.88;;;3.50;99.90;;;;;;4985874;28;20113;-87
2023/02/07 04:12:03;;;;;;;13.48;9.85;;;3.20;99.90;;;;;;4971451;28;20088;-87
2023/02/07 04:14:29;;;;;;;12.18;9.68;;;3.30;99.90;;;;;;4994892;28;20449;-87
2023/02/07 04:16:55;;;;;;;13.52;9.85;;;3.60;99.90;;;;;;4977845;28;20480;-88
2023/02/07 04:19:20;;;;;;;13.73;10.30;;;3.50;99.90;;;;;;4995657;28;20053;-88
2023/02/07 04:21:46;;;;;;;13.23;10.40;;;3.60;99.90;;;;;;4979201;28;20038;-87
2023/02/07 04:24:12;;;;;;;15.18;10.70;;;3.50;99.90;;;;;;4990544;28;20121;-88
2023/02/07 04:26:37;;;;;;;14.57;10.52;;;3.50;99.90;;;;;;4964786;28;20082;-88
2023/02/07 04:29:03;;;;;;;13.38;10.13;;;3.50;99.90;;;;;;4958689;28;20043;-87
2023/02/07 04:31:29;;;;;;;15.95;10.80;;;3.60;99.90;;;;;;4982689;28;20033;-88
2023/02/07 04:33:54;;;;;;;14.55;10.30;;;3.50;99.90;;;;;;4993976;28;20414;-88
2023/02/07 04:36:21;;;;;;;14.07;11.02;;;4.00;99.90;;;;;;4981133;28;20046;-88
2023/02/07 04:38:47;;;;;;;13.40;10.35;;;3.70;99.90;;;;;;4994691;28;20472;-87
2023/02/07 04:41:13;;;;;;;13.27;10.15;;;4.20;99.90;;;;;;4974036;28;20179;-88
2023/02/07 04:43:38;;;;;;;15.85;10.60;;;3.60;99.90;;;;;;4957280;28;20491;-88
2023/02/07 04:46:05;;;;;;;14.52;10.55;;;4.20;99.90;;;;;;4958319;28;20403;-87
2023/02/07 04:48:32;;;;;;;14.45;10.75;;;4.00;99.90;;;;;;4975417;28;20074;-88
2023/02/07 04:50:57;;;;;;;14.10;10.23;;;3.50;99.90;;;;;;4974003;28;20023;-88
2023/02/07 04:53:23;;;;;;;13.32;10.27;;;3.90;99.90;;;;;;4975268;28;20506;-88
2023/02/07 04:55:51;;;;;;;14.93;10.93;;;4.00;99.90;;;;;;4981481;28;20048;-87
2023/02/07 04:58:17;;;;;;;14.25;9.75;;;4.00;99.90;;;;;;4975263;28;20114;-88
2023/02/07 05:00:43;;;;;;;13.32;10.45;;;4.40;99.90;;;;;;4973756;28;20412;-87
2023/02/07 05:03:09;;;;;;;15.38;10.18;;;4.00;99.90;;;;;;4957768;28;20069;-88
2023/02/07 05:05:41;;;;;;;14.43;9.93;;;4.30;99.90;;;;;;4974989;28;20043;-88
2023/02/07 05:08:07;;;;;;;12.88;10.25;;;4.40;99.90;;;;;;4974984;28;20479;-88
2023/02/07 05:10:34;;;;;;;14.77;10.30;;;4.40;99.90;;;;;;4957492;28;20109;-88
2023/02/07 05:13:00;;;;;;;13.30;10.20;;;4.10;99.90;;;;;;4974754;28;20062;-87
2023/02/07 05:15:26;;;;;;;14.35;10.65;;;4.00;99.90;;;;;;4970561;28;20030;-88
2023/02/07 05:17:52;;;;;;;14.13;9.85;;;4.00;99.90;;;;;;4963812;28;20041;-88
2023/02/07 05:20:18;;;;;;;13.93;10.82;;;4.00;99.90;;;;;;4958055;28;20027;-87
2023/02/07 05:22:44;;;;;;;13.55;10.55;;;3.90;99.90;;;;;;4977119;28;20487;-88
2023/02/07 05:25:10;;;;;;;14.13;10.38;;;4.00;99.90;;;;;;4994290;28;20053;-88
2023/02/07 05:27:36;;;;;;;14.57;11.02;;;4.10;99.90;;;;;;4967710;28;20026;-87
2023/02/07 05:30:02;;;;;;;15.60;11.07;;;4.40;99.90;;;;;;4957544;28;20034;-87
2023/02/07 05:35:12;;;;;;;13.45;10.35;;;4.20;99.90;;;;;;4993949;28;20418;-88
2023/02/07 05:37:38;;;;;;;14.82;11.85;;;3.80;99.90;;;;;;4993163;28;20034;-88
2023/02/07 05:40:04;;;;;;;18.73;13.43;;;4.10;99.90;;;;;;4965250;28;20038;-88
2023/02/07 05:42:29;;;;;;;16.35;12.70;;;4.00;99.90;;;;;;4979282;28;20066;-88
2023/02/07 05:44:55;;;;;;;14.95;12.15;;;4.30;99.90;;;;;;4967851;28;20128;-88
2023/02/07 05:47:21;;;;;;;15.75;11.75;;;4.40;99.90;;;;;;4975662;28;20108;-88
2023/02/07 05:49:46;;;;;;;15.63;11.43;;;4.40;99.90;;;;;;4993974;28;20029;-88
2023/02/07 05:52:12;;;;;;;15.00;12.10;;;4.00;99.90;;;;;;4990455;28;20040;-89
2023/02/07 05:54:38;;;;;;;14.27;11.70;;;3.80;99.90;;;;;;4967452;28;20034;-88
2023/02/07 05:57:03;;;;;;;17.02;12.40;;;4.00;99.90;;;;;;4975509;28;20395;-88
2023/02/07 05:59:29;;;;;;;15.88;12.20;;;3.80;99.90;;;;;;4975629;28;20045;-87
2023/02/07 06:01:54;;;;;;;16.70;12.57;;;4.00;99.90;;;;;;4962165;28;20042;-88
2023/02/07 06:04:20;;;;;;;25.40;19.20;;;4.00;99.90;;;;;;4974327;28;20113;-89
2023/02/07 06:06:46;;;;;;;21.15;15.40;;;3.50;99.90;;;;;;4980970;28;20018;-91
2023/02/07 06:09:11;;;;;;;17.05;13.80;;;3.30;99.90;;;;;;4994683;28;20030;-90
2023/02/07 06:11:37;;;;;;;16.10;12.23;;;3.30;99.90;;;;;;4964933;28;20034;-91
2023/02/07 06:14:03;;;;;;;15.32;12.30;;;3.30;99.90;;;;;;4967074;28;20035;-92
2023/02/07 06:16:28;;;;;;;18.55;13.35;;;3.60;99.90;;;;;;4975022;28;20023;-89
2023/02/07 06:18:54;;;;;;;16.55;13.13;;;3.60;99.90;;;;;;4967982;28;20105;-90
2023/02/07 06:21:19;;;;;;;16.20;12.35;;;3.70;99.90;;;;;;4978357;28;20022;-88
2023/02/07 06:23:47;;;;;;;16.48;12.90;;;3.80;99.90;;;;;;4957092;28;20086;-90
2023/02/07 06:26:13;;;;;;;19.13;12.73;;;3.90;99.90;;;;;;4985621;28;20394;-90
2023/02/07 06:28:38;;;;;;;16.60;12.50;;;3.80;99.90;;;;;;4970739;28;20023;-90
2023/02/07 06:31:04;;;;;;;19.83;16.40;;;3.60;99.90;;;;;;4974372;28;20024;-91
2023/02/07 06:33:30;;;;;;;19.45;14.57;;;3.60;99.90;;;;;;4975098;28;20038;-90
2023/02/07 06:35:55;;;;;;;19.60;13.65;;;3.50;99.90;;;;;;4957555;28;20034;-90
2023/02/07 06:38:21;;;;;;;21.90;15.63;;;3.30;99.90;;;;;;4957413;28;20034;-90
2023/02/07 06:40:47;;;;;;;22.90;16.30;;;3.10;99.90;;;;;;4974261;28;20415;-91
2023/02/07 06:43:13;;;;;;;20.38;15.27;;;3.30;99.90;;;;;;4956446;28;20030;-91
2023/02/07 06:45:39;;;;;;;19.33;14.15;;;3.30;99.90;;;;;;4971186;28;20054;-91
2023/02/07 06:48:05;;;;;;;17.13;12.98;;;3.00;99.90;;;;;;4975778;28;20113;-90
2023/02/07 06:50:30;;;;;;;16.38;12.68;;;2.70;99.90;;;;;;4992941;28;20506;-90
2023/02/07 06:53:00;;;;;;;17.17;13.10;;;2.80;99.90;;;;;;4976269;28;20034;-91
2023/02/07 06:55:38;;;;;;;18.02;12.88;;;2.60;99.90;;;;;;4993990;28;20035;-91
2023/02/07 06:58:05;;;;;;;17.92;14.10;;;2.90;99.90;;;;;;4993829;28;20446;-91
2023/02/07 07:00:31;;;;;;;18.30;13.43;;;2.60;99.90;;;;;;4976470;28;20317;-91
2023/02/07 07:02:59;;;;;;;17.98;13.70;;;2.50;99.90;;;;;;4976013;28;20034;-91
2023/02/07 07:05:28;;;;;;;18.08;13.93;;;2.90;99.90;;;;;;4993820;28;20030;-91
2023/02/07 07:07:55;;;;;;;24.83;20.60;;;2.50;99.90;;;;;;4997457;28;20137;-92
2023/02/07 07:10:21;;;;;;;18.33;14.77;;;3.00;99.90;;;;;;4997734;28;20026;-91
2023/02/07 07:12:47;;;;;;;19.48;15.13;;;2.90;99.90;;;;;;4980200;28;20026;-91
2023/02/07 07:15:12;;;;;;;20.80;16.13;;;3.10;99.90;;;;;;4997330;28;20505;-92
2023/02/07 07:17:39;;;;;;;21.50;16.92;;;3.00;99.90;;;;;;4981522;28;20038;-91
2023/02/07 07:20:06;;;;;;;22.55;15.85;;;2.90;99.90;;;;;;4979557;28;20076;-92
2023/02/07 07:22:32;;;;;;;20.55;15.93;;;2.80;99.90;;;;;;4997850;28;20061;-92
2023/02/07 07:24:58;;;;;;;21.70;16.23;;;2.80;99.90;;;;;;4980282;28;20018;-91
2023/02/07 07:27:23;;;;;;;18.15;14.63;;;3.30;99.90;;;;;;4979924;28;20185;-92
2023/02/07 07:29:49;;;;;;;22.25;17.80;;;3.30;99.90;;;;;;4997135;28;20546;-91
2023/02/07 07:32:15;;;;;;;33.00;22.83;;;2.70;99.90;;;;;;4998732;28;20034;-94
2023/02/07 07:34:40;;;;;;;22.77;16.77;;;2.90;99.90;;;;;;4999789;28;20390;-91
2023/02/07 07:37:06;;;;;;;22.67;16.70;;;3.20;99.90;;;;;;4983600;28;20023;-90
2023/02/07 07:39:32;;;;;;;26.08;19.02;;;3.20;99.90;;;;;;4980717;28;20064;-91
2023/02/07 07:41:58;;;;;;;24.15;16.75;;;2.90;99.90;;;;;;4996715;28;20025;-92
2023/02/07 07:44:24;;;;;;;21.63;15.98;;;3.30;99.90;;;;;;4996689;28;20043;-91
2023/02/07 07:46:49;;;;;;;20.27;15.48;;;3.50;99.90;;;;;;4996527;28;20116;-91
2023/02/07 07:49:15;;;;;;;19.80;15.10;;;3.40;99.90;;;;;;4979555;28;20081;-91
2023/02/07 07:51:41;;;;;;;23.00;17.63;;;3.60;99.90;;;;;;4979788;28;20418;-91
2023/02/07 07:54:06;;;;;;;18.42;14.23;;;3.70;99.90;;;;;;4977222;28;20419;-90
2023/02/07 07:56:34;;;;;;;18.83;14.20;;;3.50;99.90;;;;;;4985067;28;20030;-87
2023/02/07 07:59:00;;;;;;;20.75;15.13;;;4.30;99.90;;;;;;4976165;28;20042;-88
2023/02/07 08:01:26;;;;;;;18.38;14.63;;;4.60;99.90;;;;;;4975738;28;20070;-88
2023/02/07 08:03:52;;;;;;;20.02;14.07;;;4.50;99.90;;;;;;4958832;28;20037;-88
2023/02/07 08:06:17;;;;;;;18.73;13.82;;;4.70;99.90;;;;;;4995904;28;20034;-87
2023/02/07 08:08:43;;;;;;;17.15;13.40;;;6.20;99.90;;;;;;4978158;28;20426;-87
2023/02/07 08:11:09;;;;;;;18.85;12.40;;;7.10;99.90;;;;;;4977928;28;20041;-88
2023/02/07 08:13:36;;;;;;;21.02;13.95;;;7.90;99.90;;;;;;4975920;28;20031;-88
2023/02/07 08:16:04;;;;;;;18.33;14.18;;;6.70;99.90;;;;;;4991382;28;20124;-88
2023/02/07 08:18:29;;;;;;;17.45;12.82;;;6.30;99.90;;;;;;4977110;28;20030;-88
2023/02/07 08:20:55;;;;;;;17.20;13.15;;;6.70;99.90;;;;;;4969236;28;20027;-88
2023/02/07 08:23:21;;;;;;;17.48;12.80;;;7.00;99.90;;;;;;4958473;28;20030;-88
2023/02/07 08:25:48;;;;;;;15.15;12.30;;;9.60;99.90;;;;;;4992386;28;20037;-88
2023/02/07 08:28:15;;;;;;;16.25;11.85;;;11.00;99.90;;;;;;4994835;28;20039;-87
2023/02/07 08:30:41;;;;;;;14.77;11.65;;;12.80;99.90;;;;;;4975946;28;20553;-86
2023/02/07 08:33:07;;;;;;;15.80;12.00;;;13.70;99.90;;;;;;4993288;28;20038;-87
2023/02/07 08:35:33;;;;;;;13.93;11.77;;;13.70;99.90;;;;;;4995008;28;20108;-88
2023/02/07 08:37:58;;;;;;;15.13;10.63;;;14.40;99.90;;;;;;4987657;28;20483;-90
2023/02/07 08:40:25;;;;;;;16.52;11.10;;;15.10;99.90;;;;;;4985348;28;20482;-88
2023/02/07 08:42:51;;;;;;;13.00;11.45;;;14.90;99.90;;;;;;4977332;28;20027;-88
2023/02/07 08:45:17;;;;;;;14.85;12.35;;;14.80;99.90;;;;;;4976789;28;20530;-88
2023/02/07 08:47:44;;;;;;;13.18;11.35;;;14.50;99.90;;;;;;4991077;28;20092;-91
2023/02/07 08:50:11;;;;;;;18.73;12.75;;;15.90;99.90;;;;;;4963839;28;20415;-88
2023/02/07 08:52:37;;;;;;;16.27;12.15;;;15.60;99.90;;;;;;4982706;28;20022;-88
2023/02/07 08:55:03;;;;;;;15.43;12.57;;;16.90;99.90;;;;;;4967199;28;20193;-89
2023/02/07 08:57:29;;;;;;;15.07;12.13;;;16.70;99.90;;;;;;4993413;28;20050;-88
2023/02/07 08:59:55;;;;;;;14.07;11.48;;;17.60;99.90;;;;;;4994150;28;20030;-88
2023/02/07 09:02:20;;;;;;;15.82;11.82;;;17.40;99.90;;;;;;4960538;28;20086;-88
2023/02/07 09:04:46;;;;;;;14.38;12.13;;;17.80;99.90;;;;;;4976973;28;20063;-88
2023/02/07 09:07:12;;;;;;;16.05;13.80;;;17.90;99.90;;;;;;4992601;28;20034;-89
2023/02/07 09:09:39;;;;;;;13.50;12.02;;;18.40;99.90;;;;;;4975074;28;20034;-88
2023/02/07 09:12:05;;;;;;;13.30;11.93;;;18.30;99.90;;;;;;4994758;28;20030;-87
2023/02/07 09:14:31;;;;;;;16.27;12.63;;;18.20;99.90;;;;;;4975820;28;20137;-87
2023/02/07 09:16:57;;;;;;;18.23;13.07;;;18.00;99.90;;;;;;4992651;28;20023;-88
2023/02/07 09:19:23;;;;;;;15.48;12.55;;;19.10;99.90;;;;;;4981223;28;20027;-87
2023/02/07 09:21:48;;;;;;;12.93;11.63;;;19.40;99.90;;;;;;4958716;28;20450;-91
2023/02/07 09:24:14;;;;;;;16.42;12.45;;;19.10;99.90;;;;;;4994465;28;20440;-91
2023/02/07 09:26:39;;;;;;;13.07;11.77;;;19.40;99.90;;;;;;4969304;28;20050;-87
2023/02/07 09:29:06;;;;;;;13.05;11.65;;;20.20;99.90;;;;;;4974590;28;20031;-87
2023/02/07 09:31:33;;;;;;;14.10;11.90;;;20.80;99.90;;;;;;4974575;28;20038;-91
2023/02/07 09:33:59;;;;;;;13.65;12.32;;;20.70;99.90;;;;;;4969249;28;20458;-88
2023/02/07 09:36:27;;;;;;;19.13;13.27;;;20.50;99.90;;;;;;4991194;28;20031;-87
2023/02/07 09:38:54;;;;;;;12.60;11.35;;;20.60;99.90;;;;;;4982310;28;20022;-87
2023/02/07 09:42:10;;;;;;;15.95;11.85;;;19.90;99.90;;;;;;4993416;28;20038;-87
2023/02/07 09:45:03;;;;;;;13.18;11.85;;;20.30;99.90;;;;;;4909808;29;20534;-87
2023/02/07 09:47:31;;;;;;;13.15;11.85;;;20.50;99.90;;;;;;4914955;29;20032;-87
2023/02/07 09:50:06;;;;;;;13.93;12.43;;;20.80;99.90;;;;;;4902924;29;20038;-89
2023/02/07 09:52:41;;;;;;;13.75;12.35;;;20.90;99.90;;;;;;4914531;29;20288;-89
2023/02/07 09:55:24;;;;;;;14.23;12.77;;;20.40;99.90;;;;;;4913264;29;20469;-87
2023/02/07 09:58:07;;;;;;;14.50;12.52;;;21.10;99.90;;;;;;4914243;29;20087;-88
2023/02/07 10:00:38;;;;;;;20.60;13.30;;;22.00;99.90;;;;;;4902631;29;20023;-88
2023/02/07 10:03:17;;;;;;;14.38;12.98;;;22.70;99.90;;;;;;4895225;29;20028;-88
2023/02/07 10:05:48;;;;;;;14.75;13.27;;;23.10;99.90;;;;;;4895507;29;20087;-87
2023/02/07 10:08:18;;;;;;;21.90;13.50;;;22.80;99.90;;;;;;4896011;29;20477;-87
2023/02/07 10:11:06;;;;;;;17.42;12.82;;;22.70;99.90;;;;;;4911103;29;20028;-87
2023/02/07 10:13:48;;;;;;;14.40;13.00;;;22.60;99.90;;;;;;4857328;29;20080;-88
2023/02/07 10:16:49;;;;;;;17.02;12.93;;;22.30;99.90;;;;;;4858097;29;20503;-87
2023/02/07 10:19:43;;;;;;;14.50;13.05;;;22.30;99.90;;;;;;4899904;29;20055;-87
2023/02/07 10:22:21;;;;;;;16.33;12.57;;;22.90;99.90;;;;;;4913314;29;20111;-87
2023/02/07 10:25:11;;;;;;;14.25;12.85;;;23.10;99.90;;;;;;4896237;29;20032;-86
2023/02/07 10:28:12;;;;;;;15.65;13.10;;;22.10;99.90;;;;;;4895408;29;20031;-87
2023/02/07 10:30:41;;;;;;;15.00;13.23;;;22.40;99.90;;;;;;4908885;29;20059;-87
2023/02/07 10:33:14;;;;;;;15.10;13.32;;;23.10;99.90;;;;;;4914016;29;20032;-86
2023/02/07 10:35:40;;;;;;;16.45;14.27;;;24.50;99.90;;;;;;4913847;29;20040;-86
2023/02/07 10:38:20;;;;;;;15.38;13.80;;;24.80;99.90;;;;;;4904452;29;20048;-86
2023/02/07 10:41:02;;;;;;;18.80;14.10;;;26.60;99.90;;;;;;4894102;29;20439;-87
2023/02/07 10:43:32;;;;;;;15.80;13.32;;;25.60;99.90;;;;;;4906134;29;20127;-88
2023/02/07 10:46:05;;;;;;;14.88;12.90;;;24.00;99.90;;;;;;4917123;29;20184;-87
2023/02/07 10:48:35;;;;;;;13.82;12.43;;;24.80;99.90;;;;;;4905805;29;20044;-87
2023/02/07 10:51:19;;;;;;;15.10;13.50;;;25.10;99.90;;;;;;4947519;28;20031;-87
2023/02/07 10:53:48;;;;;;;15.05;13.50;;;24.40;99.90;;;;;;4973198;28;20043;-84
2023/02/07 10:56:36;;;;;;;14.57;12.75;;;24.70;99.90;;;;;;4987843;28;20033;-84
2023/02/07 10:59:02;;;;;;;13.52;12.18;;;23.70;99.90;;;;;;4974184;28;20022;-84
2023/02/07 11:01:30;;;;;;;13.25;11.82;;;23.40;99.90;;;;;;4975835;28;20106;-87
2023/02/07 11:03:57;;;;;;;13.38;11.77;;;24.80;99.90;;;;;;4955960;28;20471;-85
2023/02/07 11:06:33;;;;;;;13.27;12.07;;;25.90;99.90;;;;;;4973359;28;20586;-85
2023/02/07 11:09:28;;;;;;;12.93;11.73;;;25.50;99.90;;;;;;4973277;28;20027;-85
2023/02/07 11:11:54;;;;;;;11.98;10.75;;;26.00;99.90;;;;;;4946990;28;20046;-85
2023/02/07 11:14:27;;;;;;;12.10;11.07;;;26.50;99.90;;;;;;4972279;28;20042;-86
2023/02/07 11:16:54;;;;;;;12.55;11.45;;;27.60;99.90;;;;;;4973704;28;20038;-87
2023/02/07 11:19:26;;;;;;;11.73;10.73;;;28.30;99.90;;;;;;4958094;28;20038;-86
2023/02/07 11:22:16;;;;;;;11.75;10.75;;;28.00;99.90;;;;;;4982739;28;20560;-87
2023/02/07 11:24:42;;;;;;;11.80;10.80;;;27.40;99.90;;;;;;4984603;28;20042;-89
2023/02/07 11:27:17;;;;;;;11.65;10.60;;;27.30;99.90;;;;;;4973681;28;20035;-89
2023/02/07 11:29:59;;;;;;;11.80;10.80;;;27.90;99.90;;;;;;4974567;28;20089;-84
2023/02/07 11:32:27;;;;;;;12.13;10.93;;;27.20;99.90;;;;;;4983707;28;20019;-84
2023/02/07 11:34:55;;;;;;;11.93;10.82;;;28.00;99.90;;;;;;4975958;28;20046;-85
2023/02/07 11:37:33;;;;;;;10.88;9.88;;;27.20;99.90;;;;;;4983058;28;20411;-85
2023/02/07 11:40:37;;;;;;;11.05;10.10;;;27.40;99.90;;;;;;4981117;28;20019;-85
2023/02/07 11:43:10;;;;;;;11.23;10.13;;;27.70;99.90;;;;;;4972925;28;20030;-85
2023/02/07 11:45:41;;;;;;;11.18;10.18;;;27.60;99.90;;;;;;4986573;28;20527;-85
2023/02/07 11:48:17;;;;;;;10.57;9.68;;;27.70;99.90;;;;;;4983904;28;20037;-85
2023/02/07 11:50:45;;;;;;;10.50;9.55;;;27.20;99.90;;;;;;4969957;28;20066;-88
2023/02/07 11:53:25;;;;;;;11.20;10.10;;;28.10;99.90;;;;;;4973955;28;20461;-85
2023/02/07 11:55:53;;;;;;;10.35;9.45;;;28.00;99.90;;;;;;4991772;28;20176;-90
2023/02/07 11:58:40;;;;;;;10.38;9.40;;;27.00;99.90;;;;;;4977408;28;20038;-88
2023/02/07 12:01:07;;;;;;;10.23;9.32;;;27.10;99.90;;;;;;4975222;28;20031;-89
2023/02/07 12:03:51;;;;;;;11.00;10.00;;;26.60;99.90;;;;;;4981766;28;20109;-92
2023/02/07 12:06:22;;;;;;;11.00;9.90;;;27.20;99.90;;;;;;4990681;28;20065;-85
2023/02/07 12:08:51;;;;;;;12.20;11.13;;;26.30;99.90;;;;;;4987896;28;20023;-86
2023/02/07 12:11:31;;;;;;;12.68;11.57;;;25.80;99.90;;;;;;4976094;28;20042;-85
2023/02/07 12:14:07;;;;;;;12.95;11.85;;;25.30;99.90;;;;;;4976946;28;20077;-85
2023/02/07 12:16:48;;;;;;;10.30;9.40;;;26.00;99.90;;;;;;4980684;28;20022;-87
2023/02/07 12:19:55;;;;;;;10.38;9.30;;;26.10;99.90;;;;;;4995891;28;20041;-86
2023/02/07 12:22:46;;;;;;;11.95;10.73;;;25.90;99.90;;;;;;4974707;28;20038;-86
2023/02/07 12:25:21;;;;;;;11.77;10.68;;;25.20;99.90;;;;;;4950538;29;20412;-86
2023/02/07 12:27:50;;;;;;;10.60;9.70;;;25.10;99.90;;;;;;4974140;28;20034;-88
2023/02/07 12:30:33;;;;;;;10.98;9.98;;;24.50;99.90;;;;;;4988406;28;20125;-88
2023/02/07 12:33:26;;;;;;;11.07;10.15;;;25.00;99.90;;;;;;4991149;28;20614;-87
2023/02/07 12:36:12;;;;;;;11.65;10.65;;;25.20;99.90;;;;;;4959915;28;20039;-90
2023/02/07 12:38:53;;;;;;;11.55;10.55;;;24.70;99.90;;;;;;4976268;28;20027;-90
2023/02/07 12:41:24;;;;;;;11.40;10.40;;;24.30;99.90;;;;;;4977002;28;20022;-91
2023/02/07 12:44:03;;;;;;;11.35;10.30;;;24.30;99.90;;;;;;4991684;28;20039;-93
2023/02/07 12:46:31;;;;;;;12.20;11.10;;;23.40;99.90;;;;;;4969224;28;20034;-90
2023/02/07 12:49:02;;;;;;;10.55;9.75;;;23.50;99.90;;;;;;4979798;28;20034;-92
2023/02/07 12:51:55;;;;;;;11.63;10.63;;;23.50;99.90;;;;;;4969440;28;20514;-91
2023/02/07 12:54:39;;;;;;;17.67;10.55;;;23.30;99.90;;;;;;4974902;28;20409;-90
2023/02/07 12:57:26;;;;;;;11.32;10.20;;;22.80;99.90;;;;;;4966672;28;20098;-92